Kennedy Space Center, Florida
Current Conditions -  °F | °C
As of 5:58 AM on Friday 24 Oct 2014 (Local Time) from KTTS Reporting Station
Few Clouds Few Clouds  
Wind Chill: 64°   Ceiling: Unl
Heat Index: 64°   Visibility: 10mi
Dew Point: 56°   Wind: 2mph
Humidity: 75%   Direction: 80°E
Pressure: 29.94"   Gusts: NA
Location:  28.62°N, 80.68°W
Report Text: KTTS 240958Z AUTO 08002KT 10SM FEW047 18/14 A2994 RMK AO2 SLP142 T01790135 VISNO RWY33 CHINO RWY33
Loading
Personal Weather Stations






























Interactive Weather Map
Tropical Storm Tracking
New forecast layout! Learn more

10-Day Weather Forecast

Advertisements
Track Severe Weather on mobile